Time;durP1;ratioP1;P1;durP2;ratioP2;P2;SDS_P1;SDS_P2;PMS_P1;PMS_P2;Temp;Humidity;BMP_temperature;BMP_pressure;BME280_temperature;BME280_humidity;BME280_pressure;Samples;Min_cycle;Max_cycle;Signal;HPM_P1;HPM_P2
2021/05/25 00:00:37;;;;;;;5.20;1.35;;;;;;;13.61;100.00;99729.34;1844578;77;21427;-73
2021/05/25 00:03:18;;;;;;;4.22;1.70;;;;;;;13.63;100.00;99731.97;1847422;77;21380;-73
2021/05/25 00:05:53;;;;;;;6.22;2.02;;;;;;;13.63;100.00;99725.34;1847184;77;21427;-72
2021/05/25 00:08:32;;;;;;;3.22;1.72;;;;;;;13.61;100.00;99734.64;1845475;77;21439;-72
2021/05/25 00:11:10;;;;;;;4.15;1.62;;;;;;;13.60;100.00;99724.92;1846655;77;21467;-72
2021/05/25 00:13:46;;;;;;;5.35;1.57;;;;;;;13.63;100.00;99726.22;1847569;77;21371;-72
2021/05/25 00:16:24;;;;;;;2.45;1.67;;;;;;;13.63;100.00;99729.32;1840821;77;20889;-72
2021/05/25 00:19:22;;;;;;;;;;;;;;;;;;;;;
2021/05/25 00:21:53;;;;;;;5.80;1.67;;;;;;;13.60;100.00;99738.62;1842142;77;20885;-72
2021/05/25 00:24:21;;;;;;;5.80;1.80;;;;;;;13.59;100.00;99732.89;1842208;77;21476;-73
2021/05/25 00:26:55;;;;;;;5.55;1.60;;;;;;;13.62;100.00;99732.86;1843658;77;21463;-73
2021/05/25 00:29:35;;;;;;;2.92;1.42;;;;;;;13.64;100.00;99733.28;1844043;77;20912;-72
2021/05/25 00:32:06;;;;;;;2.62;1.37;;;;;;;13.66;100.00;99743.42;1839874;77;21400;-72
2021/05/25 00:34:54;;;;;;;5.62;1.50;;;;;;;13.66;100.00;99747.41;1843221;77;20929;-73
2021/05/25 00:37:28;;;;;;;3.45;1.90;;;;;;;13.67;100.00;99750.48;1843979;77;21109;-73
2021/05/25 00:40:08;;;;;;;4.22;1.50;;;;;;;13.68;100.00;99754.02;1843727;77;21409;-72
2021/05/25 00:42:47;;;;;;;4.60;1.70;;;;;;;13.69;100.00;99749.15;1843828;77;21430;-73
2021/05/25 00:45:30;;;;;;;4.03;1.70;;;;;;;13.71;100.00;99744.27;1839738;77;20898;-73
2021/05/25 00:48:01;;;;;;;4.20;1.60;;;;;;;13.71;100.00;99750.02;1844221;77;20893;-72
2021/05/25 00:50:38;;;;;;;6.53;1.40;;;;;;;13.72;100.00;99747.38;1844019;77;21376;-73
2021/05/25 00:53:09;;;;;;;3.17;1.00;;;;;;;13.73;100.00;99738.98;1843973;77;20941;-73
2021/05/25 00:55:42;;;;;;;2.02;1.37;;;;;;;13.74;100.00;99744.27;1844089;77;20940;-72
2021/05/25 01:01:27;;;;;;;2.47;1.32;;;;;;;13.78;100.00;99727.88;1775180;79;22984;-72
2021/05/25 01:04:13;;;;;;;5.30;2.00;;;;;;;13.73;100.00;99735.88;1748612;80;21424;-71
2021/05/25 01:06:55;;;;;;;2.10;1.37;;;;;;;13.72;100.00;99738.55;1749487;80;20992;-73
2021/05/25 01:09:36;;;;;;;4.55;1.42;;;;;;;13.67;100.00;99739.00;1749649;80;21456;-73
2021/05/25 01:12:12;;;;;;;2.62;1.47;;;;;;;13.65;100.00;99735.05;1745843;80;20866;-73
2021/05/25 01:14:52;;;;;;;6.17;1.50;;;;;;;13.62;100.00;99731.09;1749838;80;21554;-73
2021/05/25 01:17:24;;;;;;;4.90;1.22;;;;;;;13.57;100.00;99728.05;1749403;80;21420;-72
2021/05/25 01:19:59;;;;;;;3.30;1.35;;;;;;;13.49;100.00;99734.30;1748877;82;20858;-72
2021/05/25 01:22:40;;;;;;;4.33;1.57;;;;;;;13.44;100.00;99737.88;1750177;80;20981;-72
2021/05/25 01:25:25;;;;;;;1.98;1.37;;;;;;;13.40;100.00;99740.13;1749996;80;21554;-71
2021/05/25 01:28:10;;;;;;;4.12;1.17;;;;;;;13.39;100.00;99739.70;1749825;80;20949;-72
2021/05/25 01:30:44;;;;;;;4.22;1.60;;;;;;;13.38;100.00;99739.26;1749985;80;21602;-73
2021/05/25 01:33:20;;;;;;;5.03;1.42;;;;;;;13.36;100.00;99730.45;1749493;80;21400;-73
2021/05/25 01:35:52;;;;;;;2.58;1.45;;;;;;;13.34;100.00;99727.81;1747771;82;20973;-72
2021/05/25 01:38:27;;;;;;;13.05;1.77;;;;;;;13.33;100.00;99726.05;1749709;81;21422;-72
2021/05/25 01:41:04;;;;;;;7.45;1.60;;;;;;;13.31;100.00;99722.98;1742247;82;21001;-72
2021/05/25 01:43:39;;;;;;;3.10;1.50;;;;;;;13.30;100.00;99718.13;1749635;80;20850;-72
2021/05/25 01:46:23;;;;;;;4.55;1.50;;;;;;;13.29;100.00;99721.66;1749912;80;20953;-72
2021/05/25 01:48:53;;;;;;;2.92;1.50;;;;;;;13.23;100.00;99711.97;1748231;82;21701;-71
2021/05/25 01:51:41;;;;;;;6.40;1.85;;;;;;;13.16;100.00;99715.52;1749244;80;20876;-71
2021/05/25 01:54:18;;;;;;;3.92;1.57;;;;;;;13.07;100.00;99714.27;1654540;85;21112;-73
2021/05/25 01:57:05;;;;;;;5.90;1.70;;;;;;;13.00;100.00;99710.34;1740544;81;21923;-71
2021/05/25 01:59:49;;;;;;;3.67;1.45;;;;;;;12.96;100.00;99710.81;1744636;81;21091;-71
2021/05/25 02:02:31;;;;;;;5.00;1.35;;;;;;;12.97;100.00;99722.28;1761598;79;20956;-71
2021/05/25 02:05:04;;;;;;;3.37;1.47;;;;;;;12.94;100.00;99715.24;1765812;79;21534;-71
2021/05/25 02:07:42;;;;;;;3.87;1.57;;;;;;;12.94;100.00;99721.86;1766202;79;21491;-71
2021/05/25 02:10:38;;;;;;;3.85;1.77;;;;;;;12.92;100.00;99724.52;1765874;79;21004;-71
2021/05/25 02:13:32;;;;;;;4.50;1.57;;;;;;;12.95;100.00;99722.74;1765702;79;21474;-71
2021/05/25 02:16:13;;;;;;;3.30;1.92;;;;;;;12.91;100.00;99715.27;1756583;79;21598;-68
2021/05/25 02:18:54;;;;;;;4.12;1.77;;;;;;;12.90;100.00;99708.20;1736613;79;21541;-69
2021/05/25 02:21:33;;;;;;;3.45;1.77;;;;;;;12.89;100.00;99699.83;1764309;79;21428;-69
2021/05/25 02:24:05;;;;;;;3.22;1.40;;;;;;;12.89;100.00;99694.53;1764778;79;20940;-68
2021/05/25 02:26:48;;;;;;;5.33;1.80;;;;;;;12.89;100.00;99695.41;1765550;79;21066;-69
2021/05/25 02:29:29;;;;;;;4.15;1.87;;;;;;;12.91;100.00;99692.75;1763660;79;21087;-69
2021/05/25 02:32:00;;;;;;;3.92;1.52;;;;;;;12.92;100.00;99690.54;1763202;79;21515;-68
2021/05/25 02:34:35;;;;;;;2.40;1.30;;;;;;;12.94;100.00;99695.38;1765640;79;21618;-67
2021/05/25 02:40:00;;;;;;;2.17;1.37;;;;;;;12.97;100.00;99694.03;1747379;79;21639;-66
2021/05/25 02:42:52;;;;;;;3.52;1.40;;;;;;;12.98;100.00;99689.17;1713950;79;20896;-68
2021/05/25 02:48:11;;;;;;;5.25;1.62;;;;;;;13.03;100.00;99694.44;1674865;84;21557;-69
2021/05/25 02:51:05;;;;;;;;;;;;;;;;;;;;;
2021/05/25 02:53:25;;;;;;;4.37;1.60;;;;;;;13.11;100.00;99685.54;1740869;79;21467;-68
2021/05/25 02:56:01;;;;;;;9.48;2.17;;;;;;;13.16;100.00;99685.50;1737460;81;21530;-68
2021/05/25 02:58:40;;;;;;;5.40;1.82;;;;;;;13.20;100.00;99690.80;1765335;79;20945;-68
2021/05/25 03:01:07;;;;;;;3.72;1.45;;;;;;;13.23;100.00;99692.09;1763657;79;21496;-68
2021/05/25 03:03:39;;;;;;;3.77;1.98;;;;;;;13.29;100.00;99708.42;1760801;81;21481;-70
2021/05/25 03:06:15;;;;;;;5.87;2.02;;;;;;;13.36;100.00;99699.53;1765113;81;21470;-71
2021/05/25 03:08:54;;;;;;;5.72;2.02;;;;;;;13.42;100.00;99697.27;1738998;79;21080;-69
2021/05/25 03:11:30;;;;;;;14.53;2.85;;;;;;;13.47;100.00;99703.41;1764978;81;20928;-63
2021/05/25 03:14:09;;;;;;;7.58;2.50;;;;;;;13.50;100.00;99704.25;1765768;79;20944;-67
2021/05/25 03:16:39;;;;;;;6.35;2.00;;;;;;;13.55;100.00;99709.52;1765508;79;20905;-65
2021/05/25 03:20:22;;;;;;;;;;;;;;;;;;;;;
2021/05/25 03:22:00;;;;;;;3.27;2.30;;;;;;;13.61;100.00;99716.08;1748155;81;20953;-74
2021/05/25 03:27:21;;;;;;;5.75;2.17;;;;;;;13.60;100.00;99697.54;1758323;79;20933;-67
2021/05/25 03:30:29;;;;;;;5.40;2.27;;;;;;;13.57;100.00;99693.59;1718867;81;20901;-67
2021/05/25 03:32:58;;;;;;;5.53;2.50;;;;;;;13.56;100.00;99690.06;1763975;79;21056;-66
2021/05/25 03:35:35;;;;;;;5.22;2.62;;;;;;;13.54;100.00;99684.78;1756632;79;20916;-67
2021/05/25 03:38:16;;;;;;;6.58;2.65;;;;;;;13.53;100.00;99688.33;1762897;79;20850;-70
2021/05/25 03:40:59;;;;;;;5.08;2.45;;;;;;;13.56;100.00;99694.04;1765296;79;21483;-70
2021/05/25 03:43:32;;;;;;;4.85;2.42;;;;;;;13.61;100.00;99688.70;1765621;79;21395;-67
2021/05/25 03:46:00;;;;;;;;;;;;;;;13.66;100.00;99693.05;1768193;79;21028;-68
2021/05/25 03:48:30;;;;;;;6.80;2.62;;;;;;;13.70;100.00;99696.11;1764927;79;20530;-67
2021/05/25 03:50:59;;;;;;;4.90;2.80;;;;;;;13.73;100.00;99693.46;1765012;79;20909;-68
2021/05/25 03:53:28;;;;;;;5.95;3.10;;;;;;;13.77;100.00;99696.95;1765453;81;21528;-67
2021/05/25 03:58:51;;;;;;;6.20;2.90;;;;;;;13.91;100.00;99698.13;1765707;79;21414;-68
2021/05/25 04:01:26;;;;;;;7.58;2.70;;;;;;;13.99;100.00;99703.78;1751747;79;21408;-68
2021/05/25 04:03:56;;;;;;;7.87;3.08;;;;;;;14.05;100.00;99705.48;1740883;82;20914;-68
2021/05/25 04:06:25;;;;;;;5.20;2.77;;;;;;;14.10;100.00;99696.58;1740817;82;21577;-68
2021/05/25 04:08:54;;;;;;;5.10;3.15;;;;;;;14.17;100.00;99702.69;1740954;81;20989;-68
2021/05/25 04:11:23;;;;;;;7.45;3.40;;;;;;;14.25;100.00;99703.52;1740875;81;21028;-68
2021/05/25 04:13:51;;;;;;;7.15;3.77;;;;;;;14.34;100.00;99703.39;1740759;81;20906;-68
2021/05/25 04:16:20;;;;;;;3.75;3.40;;;;;;;14.41;100.00;99701.09;1740830;81;21404;-68
2021/05/25 04:18:50;;;;;;;6.55;3.65;;;;;;;14.48;100.00;99708.11;1740826;81;21397;-68
2021/05/25 04:21:19;;;;;;;3.52;2.65;;;;;;;14.53;100.00;99708.05;1740862;81;21504;-68
2021/05/25 04:23:47;;;;;;;4.72;2.40;;;;;;;14.57;100.00;99704.91;1740806;82;21725;-69
2021/05/25 04:26:15;;;;;;;2.30;2.10;;;;;;;14.57;100.00;99691.18;1740742;82;20906;-68
2021/05/25 04:28:44;;;;;;;2.87;2.60;;;;;;;14.56;100.00;99693.86;1740816;81;20882;-68
2021/05/25 04:31:13;;;;;;;5.12;3.27;;;;;;;14.54;100.00;99681.05;1740806;82;20946;-68
2021/05/25 04:33:41;;;;;;;4.40;3.70;;;;;;;14.58;100.00;99678.78;1740842;81;21435;-69
2021/05/25 04:36:09;;;;;;;9.73;5.62;;;;;;;14.66;100.00;99676.89;1740797;81;20990;-68
2021/05/25 04:38:37;;;;;;;9.08;6.50;;;;;;;14.73;100.00;99669.30;1740781;81;21393;-67
2021/05/25 04:41:05;;;;;;;7.37;5.42;;;;;;;14.80;100.00;99667.86;1740741;81;21439;-68
2021/05/25 04:43:34;;;;;;;5.25;3.58;;;;;;;14.86;100.00;99669.99;1740827;81;20983;-69
2021/05/25 04:46:02;;;;;;;6.47;2.17;;;;;;;14.92;100.00;99674.77;1740811;82;21443;-68
2021/05/25 04:48:31;;;;;;;5.78;2.22;;;;;;;14.99;100.00;99683.06;1740813;82;21042;-68
2021/05/25 04:51:00;;;;;;;3.67;2.02;;;;;;;15.04;100.00;99677.67;1740725;81;21511;-68
2021/05/25 04:53:28;;;;;;;3.10;1.80;;;;;;;15.06;100.00;99677.20;1740802;81;20894;-68
2021/05/25 04:55:56;;;;;;;3.08;1.50;;;;;;;15.08;100.00;99678.93;1740825;82;20958;-69
2021/05/25 04:58:24;;;;;;;3.45;1.35;;;;;;;15.12;100.00;99687.28;1740845;82;20891;-68
2021/05/25 05:00:52;;;;;;;4.10;1.10;;;;;;;15.19;100.00;99684.55;1741783;81;21572;-68
2021/05/25 05:03:22;;;;;;;3.45;1.22;;;;;;;15.20;100.00;99681.87;1740739;82;21384;-68
2021/05/25 05:05:49;;;;;;;1.55;1.30;;;;;;;15.23;100.00;99684.93;1740801;81;20862;-68
2021/05/25 05:08:18;;;;;;;3.80;1.35;;;;;;;15.25;100.00;99685.33;1740786;81;20922;-68
2021/05/25 05:10:46;;;;;;;2.00;1.35;;;;;;;15.26;100.00;99691.52;1740829;81;20902;-68
2021/05/25 05:13:17;;;;;;;2.47;1.40;;;;;;;15.24;100.00;99688.89;1740762;81;20898;-68
2021/05/25 05:15:47;;;;;;;2.52;1.32;;;;;;;15.28;100.00;99697.24;1740763;81;20910;-68
2021/05/25 05:18:15;;;;;;;5.60;1.80;;;;;;;15.33;100.00;99702.03;1740840;81;20867;-68
2021/05/25 05:20:43;;;;;;;2.95;1.80;;;;;;;15.37;100.00;99701.08;1740764;81;21404;-68
2021/05/25 05:23:11;;;;;;;5.33;1.60;;;;;;;15.40;100.00;99690.39;1740783;81;21368;-68
2021/05/25 05:25:39;;;;;;;3.33;1.77;;;;;;;15.46;100.00;99689.86;1740910;81;21444;-68
2021/05/25 05:28:07;;;;;;;2.92;1.65;;;;;;;15.53;100.00;99692.38;1740735;81;20914;-68
2021/05/25 05:30:35;;;;;;;2.02;1.32;;;;;;;15.63;100.00;99690.50;1740749;81;20925;-69
2021/05/25 05:33:04;;;;;;;3.02;1.10;;;;;;;15.73;100.00;99683.66;1740774;81;21060;-68
2021/05/25 05:35:32;;;;;;;2.70;0.90;;;;;;;15.85;100.00;99678.55;1740792;81;20909;-67
2021/05/25 05:38:01;;;;;;;1.07;0.80;;;;;;;15.97;100.00;99676.11;1740756;81;21052;-67
2021/05/25 05:40:28;;;;;;;2.90;0.80;;;;;;;16.07;100.00;99676.35;1740700;81;20882;-68
2021/05/25 05:42:56;;;;;;;0.90;0.60;;;;;;;16.16;100.00;99674.86;1740773;81;21511;-67
2021/05/25 05:45:24;;;;;;;3.90;0.60;;;;;;;16.28;100.00;99676.39;1740761;82;20894;-67
2021/05/25 05:47:52;;;;;;;2.25;0.90;;;;;;;16.38;100.00;99669.52;1740901;81;20886;-67
2021/05/25 05:50:19;;;;;;;3.15;1.00;;;;;;;16.47;100.00;99657.78;1709956;82;21354;-67
2021/05/25 05:52:47;;;;;;;1.02;0.90;;;;;;;16.58;100.00;99657.58;1740935;82;20906;-67
2021/05/25 05:55:18;;;;;;;4.50;1.40;;;;;;;16.70;100.00;99652.00;1740899;82;21417;-68
2021/05/25 05:57:47;;;;;;;1.20;0.90;;;;;;;16.83;100.00;99651.27;1740909;81;20914;-68
2021/05/25 06:00:16;;;;;;;7.05;1.32;;;;;;;16.96;100.00;99636.27;1740880;81;21444;-68
2021/05/25 06:02:43;;;;;;;1.05;0.75;;;;;;;17.09;100.00;99621.34;1740908;81;21047;-68
2021/05/25 06:05:12;;;;;;;1.00;0.60;;;;;;;17.22;100.00;99621.45;1740900;81;20930;-68
2021/05/25 06:07:40;;;;;;;3.25;1.10;;;;;;;17.31;100.00;99607.88;1740917;81;20929;-67
2021/05/25 06:10:08;;;;;;;0.98;0.60;;;;;;;17.43;100.00;99616.02;1740867;81;20985;-68
2021/05/25 06:12:36;;;;;;;6.25;0.57;;;;;;;17.47;100.00;99619.89;1740895;82;21057;-67
2021/05/25 06:15:04;;;;;;;0.65;0.40;;;;;;;17.53;100.00;99620.22;1740903;81;21107;-69
2021/05/25 06:17:33;;;;;;;0.50;0.50;;;;;;;17.58;100.00;99616.51;1740886;82;20918;-69
2021/05/25 06:20:00;;;;;;;0.40;0.40;;;;;;;17.61;100.00;99612.42;1740851;81;20922;-69
2021/05/25 06:22:28;;;;;;;2.62;0.60;;;;;;;17.62;100.00;99606.17;1740887;82;20884;-68
2021/05/25 06:24:56;;;;;;;1.70;0.55;;;;;;;17.70;100.00;99607.78;1740942;82;20914;-68
2021/05/25 06:27:23;;;;;;;3.15;0.60;;;;;;;17.76;100.00;99600.94;1740909;82;21500;-69
2021/05/25 06:29:51;;;;;;;0.95;0.85;;;;;;;17.85;100.00;99600.68;1740811;81;20879;-68
2021/05/25 06:32:19;;;;;;;1.52;0.60;;;;;;;17.92;100.00;99597.79;1740878;82;20919;-68
2021/05/25 06:34:48;;;;;;;2.02;0.50;;;;;;;17.94;100.00;99594.62;1740918;81;20918;-68
2021/05/25 06:37:15;;;;;;;1.65;0.42;;;;;;;18.01;100.00;99587.34;1740912;81;20898;-69
2021/05/25 06:39:44;;;;;;;0.80;0.40;;;;;;;18.07;100.00;99583.16;1740940;81;21087;-68
2021/05/25 06:42:11;;;;;;;2.52;0.60;;;;;;;18.11;100.00;99579.47;1740777;81;20969;-68
2021/05/25 06:44:39;;;;;;;0.90;0.47;;;;;;;18.22;100.00;99584.03;1740877;81;21036;-69
2021/05/25 06:47:06;;;;;;;2.05;0.57;;;;;;;18.29;100.00;99595.86;1740909;82;20930;-70
2021/05/25 06:49:34;;;;;;;3.70;0.50;;;;;;;18.37;100.00;99605.38;1740856;82;21460;-69
2021/05/25 06:52:02;;;;;;;4.37;0.70;;;;;;;18.48;100.00;99597.08;1740891;81;21007;-69
2021/05/25 06:54:29;;;;;;;1.50;0.50;;;;;;;18.57;100.00;99592.77;1740855;82;20913;-69
2021/05/25 06:56:57;;;;;;;2.33;0.50;;;;;;;18.65;100.00;99594.77;1740875;81;20914;-69
2021/05/25 06:59:24;;;;;;;0.78;0.42;;;;;;;18.71;100.00;99591.91;1740877;82;20925;-68
2021/05/25 07:01:55;;;;;;;0.65;0.40;;;;;;;18.80;100.00;99586.72;1740806;81;20902;-69
2021/05/25 07:04:22;;;;;;;5.58;0.60;;;;;;;18.88;100.00;99584.67;1740867;82;21049;-69
2021/05/25 07:06:50;;;;;;;1.70;0.50;;;;;;;18.93;100.00;99589.44;1740852;81;20926;-69
2021/05/25 07:09:18;;;;;;;2.77;0.50;;;;;;;18.94;100.00;99580.95;1740910;81;21408;-69
2021/05/25 07:11:47;;;;;;;0.50;0.50;;;;;;;18.95;100.00;99585.38;1740678;81;20954;-69
2021/05/25 07:14:15;;;;;;;0.60;0.40;;;;;;;18.97;100.00;99571.03;1740910;81;20981;-70
2021/05/25 07:16:42;;;;;;;2.85;0.50;;;;;;;19.06;100.00;99559.16;1740861;81;21029;-70
2021/05/25 07:19:10;;;;;;;0.50;0.40;;;;;;;19.13;100.00;99555.34;1740764;81;21437;-71
2021/05/25 07:21:37;;;;;;;0.62;0.42;;;;;;;19.22;100.00;99556.82;1740822;81;20883;-69
2021/05/25 07:24:07;;;;;;;0.82;0.30;;;;;;;19.29;100.00;99569.05;1740856;81;21448;-69
2021/05/25 07:26:35;;;;;;;1.30;0.40;;;;;;;19.34;100.00;99571.10;1740922;81;20929;-70
2021/05/25 07:29:03;;;;;;;1.85;0.68;;;;;;;19.43;100.00;99575.70;1740850;81;21020;-69
2021/05/25 07:31:31;;;;;;;1.55;0.50;;;;;;;19.53;100.00;99582.09;1740758;81;20934;-70
2021/05/25 07:33:58;;;;;;;2.77;0.45;;;;;;;19.55;100.00;99581.57;1740844;82;21408;-70
2021/05/25 07:36:26;;;;;;;5.20;0.72;;;;;;;19.56;100.00;99581.52;1740874;81;20922;-70
2021/05/25 07:38:54;;;;;;;1.87;0.40;;;;;;;19.60;100.00;99580.48;1740901;81;20937;-69
2021/05/25 07:41:22;;;;;;;1.00;0.57;;;;;;;19.64;100.00;99582.12;1740920;81;21090;-70
2021/05/25 07:43:50;;;;;;;1.05;0.50;;;;;;;19.69;100.00;99576.13;1740766;81;20974;-70
2021/05/25 07:46:18;;;;;;;1.25;0.60;;;;;;;19.80;100.00;99569.05;1740817;81;20965;-69
2021/05/25 07:48:47;;;;;;;0.65;0.50;;;;;;;19.87;100.00;99565.70;1740795;81;20973;-70
2021/05/25 07:51:15;;;;;;;2.33;0.47;;;;;;;19.96;100.00;99563.55;1709740;82;20894;-71
2021/05/25 07:53:42;;;;;;;2.35;0.95;;;;;;;20.07;100.00;99566.70;1740813;82;20998;-70
2021/05/25 07:56:10;;;;;;;3.80;0.70;;;;;;;20.19;100.00;99580.55;1740759;81;21488;-70
2021/05/25 07:58:38;;;;;;;2.62;0.60;;;;;;;20.22;100.00;99575.08;1740884;82;20898;-71
2021/05/25 08:01:05;;;;;;;4.05;0.68;;;;;;;20.24;100.00;99570.06;1740743;81;20938;-71
2021/05/25 08:03:34;;;;;;;1.37;0.60;;;;;;;20.24;100.00;99555.80;1762523;81;20913;-71
2021/05/25 08:06:02;;;;;;;0.90;0.60;;;;;;;20.28;100.00;99555.62;1765693;81;21624;-70
2021/05/25 08:08:34;;;;;;;1.57;0.68;;;;;;;20.34;100.00;99554.06;1765567;79;20873;-71
2021/05/25 08:10:59;;;;;;;0.68;0.47;;;;;;;20.37;100.00;99575.38;1765262;81;20885;-71
2021/05/25 08:13:28;;;;;;;3.05;0.60;;;;;;;20.38;100.00;99579.80;1765699;79;20965;-70
2021/05/25 08:15:56;;;;;;;3.30;0.42;;;;;;;20.36;100.00;99579.00;1765700;81;20866;-71
2021/05/25 08:21:10;;;;;;;0.90;0.55;;;;;;;20.33;100.00;99576.87;1731639;81;20952;-71
2021/05/25 08:23:38;;;;;;;1.05;0.50;;;;;;;20.31;100.00;99574.72;1754897;81;20890;-71
2021/05/25 08:26:06;;;;;;;1.10;0.60;;;;;;;20.36;100.00;99579.46;1765645;79;20885;-71
2021/05/25 08:28:33;;;;;;;2.47;0.60;;;;;;;20.38;100.00;99577.13;1765662;81;21436;-71
2021/05/25 08:31:01;;;;;;;0.90;0.60;;;;;;;20.44;100.00;99576.05;1765656;79;21021;-71
2021/05/25 08:33:28;;;;;;;3.20;0.55;;;;;;;20.45;100.00;99572.44;1765631;81;20862;-71
2021/05/25 08:35:55;;;;;;;0.75;0.50;;;;;;;20.46;100.00;99566.61;1765750;79;21446;-70
2021/05/25 08:38:23;;;;;;;1.87;0.50;;;;;;;20.47;100.00;99569.69;1765661;81;20984;-71
2021/05/25 08:40:53;;;;;;;1.52;0.70;;;;;;;20.43;99.96;99566.26;1765662;79;20925;-70
2021/05/25 08:43:21;;;;;;;2.05;0.60;;;;;;;20.38;100.00;99555.69;1765654;81;21110;-71
2021/05/25 08:45:49;;;;;;;1.35;0.40;;;;;;;20.37;100.00;99540.55;1765639;79;21395;-70
2021/05/25 08:48:16;;;;;;;0.80;0.50;;;;;;;20.34;100.00;99546.03;1765639;81;20879;-70
2021/05/25 08:50:45;;;;;;;2.40;0.70;;;;;;;20.33;100.00;99540.70;1765648;79;21474;-70
2021/05/25 08:53:12;;;;;;;1.07;0.72;;;;;;;20.29;100.00;99533.25;1765758;79;21495;-70
2021/05/25 08:55:42;;;;;;;3.35;0.65;;;;;;;20.25;100.00;99520.91;1737951;81;21478;-70
2021/05/25 08:58:09;;;;;;;0.80;0.45;;;;;;;20.25;100.00;99512.87;1765614;79;20862;-69
2021/05/25 09:00:37;;;;;;;2.95;0.50;;;;;;;20.29;100.00;99516.30;1765633;81;20944;-70
2021/05/25 09:03:05;;;;;;;1.55;0.53;;;;;;;20.31;100.00;99517.11;1752119;79;20934;-70
2021/05/25 09:05:34;;;;;;;0.72;0.50;;;;;;;20.35;100.00;99500.89;1740862;82;20914;-70
2021/05/25 09:08:01;;;;;;;2.67;0.70;;;;;;;20.36;100.00;99506.66;1740786;81;21001;-70
2021/05/25 09:10:40;;;;;;;1.85;0.50;;;;;;;20.40;100.00;99500.73;1740765;81;20898;-70
2021/05/25 09:13:17;;;;;;;1.45;0.50;;;;;;;20.52;100.00;99507.41;1740845;81;20890;-69
2021/05/25 09:15:49;;;;;;;1.50;0.60;;;;;;;20.54;100.00;99507.74;1739230;81;20962;-69
2021/05/25 09:18:21;;;;;;;2.80;1.00;;;;;;;20.45;100.00;99504.10;1740908;81;21389;-69
2021/05/25 09:20:53;;;;;;;2.87;0.40;;;;;;;20.36;100.00;99501.77;1740788;81;21012;-69
2021/05/25 09:23:36;;;;;;;5.03;0.50;;;;;;;20.30;100.00;99510.02;1740901;81;21385;-70
2021/05/25 09:26:12;;;;;;;1.15;0.60;;;;;;;20.24;100.00;99508.45;1740278;81;21516;-70
2021/05/25 09:29:03;;;;;;;1.95;0.60;;;;;;;20.35;100.00;99510.27;1740963;81;20933;-68
2021/05/25 09:31:45;;;;;;;1.82;0.50;;;;;;;20.55;100.00;99505.94;1740943;82;21499;-70
2021/05/25 09:34:17;;;;;;;0.68;0.40;;;;;;;20.69;100.00;99497.73;1741087;82;21054;-69
2021/05/25 09:37:08;;;;;;;1.92;0.55;;;;;;;20.80;100.00;99501.77;1740852;82;20894;-70
2021/05/25 09:39:44;;;;;;;1.35;0.60;;;;;;;20.86;100.00;99497.05;1740988;81;20886;-70
2021/05/25 09:42:16;;;;;;;3.72;0.68;;;;;;;20.87;100.00;99484.52;1740887;81;20906;-69
2021/05/25 09:45:08;;;;;;;;;;;;;;;20.87;100.00;99480.02;1743647;81;21401;-70
2021/05/25 09:47:45;;;;;;;1.40;0.50;;;;;;;20.85;100.00;99481.89;1741043;81;21104;-70
2021/05/25 09:50:13;;;;;;;0.85;0.50;;;;;;;20.83;100.00;99474.86;1740900;81;20895;-70
2021/05/25 09:53:08;;;;;;;6.22;0.42;;;;;;;20.73;100.00;99468.98;1740935;81;20902;-70
2021/05/25 09:55:57;;;;;;;1.70;0.60;;;;;;;20.68;100.00;99467.84;1736426;82;20938;-70
2021/05/25 09:58:35;;;;;;;3.70;0.50;;;;;;;20.69;100.00;99472.26;1740955;82;21488;-70
2021/05/25 10:01:09;;;;;;;2.25;0.50;;;;;;;20.68;100.00;99465.16;1740946;82;21052;-70
2021/05/25 10:03:54;;;;;;;1.30;0.53;;;;;;;20.68;100.00;99454.44;1756162;79;20924;-70
2021/05/25 10:06:22;;;;;;;2.27;0.50;;;;;;;20.66;100.00;99454.09;1765793;79;20917;-71
2021/05/25 10:08:52;;;;;;;0.95;0.40;;;;;;;20.60;100.00;99447.19;1765664;79;20941;-71
2021/05/25 10:11:19;;;;;;;1.98;0.53;;;;;;;20.60;100.00;99440.95;1765809;79;20869;-71
2021/05/25 10:13:47;;;;;;;0.90;0.60;;;;;;;20.62;100.00;99447.12;1765771;81;21027;-70
2021/05/25 10:16:16;;;;;;;1.75;0.55;;;;;;;20.64;100.00;99443.91;1765717;81;20929;-70
2021/05/25 10:21:13;;;;;;;1.35;0.70;;;;;;;20.56;100.00;99432.64;1765716;79;20913;-70
2021/05/25 10:23:42;;;;;;;2.67;0.45;;;;;;;20.53;100.00;99426.07;1765797;79;20933;-70
2021/05/25 10:26:19;;;;;;;3.52;0.62;;;;;;;20.56;100.00;99433.51;1765805;80;21024;-70
2021/05/25 10:28:52;;;;;;;0.93;0.50;;;;;;;20.57;100.00;99427.69;1765059;81;20921;-70
2021/05/25 10:31:37;;;;;;;0.55;0.50;;;;;;;20.54;100.00;99417.09;1765799;81;20904;-70
2021/05/25 10:34:22;;;;;;;1.92;0.60;;;;;;;20.53;100.00;99413.54;1765768;81;21561;-70
2021/05/25 10:36:55;;;;;;;6.87;0.62;;;;;;;20.53;100.00;99410.86;1765860;80;20917;-70
2021/05/25 10:39:43;;;;;;;1.00;0.62;;;;;;;20.47;100.00;99411.59;1765767;79;21133;-69
2021/05/25 10:42:25;;;;;;;1.27;0.60;;;;;;;20.44;100.00;99400.53;1765670;79;20908;-69
2021/05/25 10:45:11;;;;;;;2.37;0.62;;;;;;;20.46;100.00;99393.77;1765915;81;20901;-71
2021/05/25 10:47:51;;;;;;;4.10;1.27;;;;;;;20.50;100.00;99401.61;1759149;80;20917;-70
2021/05/25 10:53:00;;;;;;;1.37;0.70;;;;;;;20.62;100.00;99391.70;1765686;79;21030;-67
2021/05/25 10:55:38;;;;;;;1.45;0.88;;;;;;;20.65;100.00;99386.21;1765560;81;20925;-68
2021/05/25 10:58:29;;;;;;;4.53;0.80;;;;;;;20.65;100.00;99382.19;1765455;79;21008;-68
2021/05/25 11:01:00;;;;;;;1.27;0.60;;;;;;;20.71;100.00;99373.88;1765692;80;20940;-68
2021/05/25 11:03:28;;;;;;;3.50;0.60;;;;;;;20.86;100.00;99362.98;1755253;79;20910;-67
2021/05/25 11:06:01;;;;;;;2.20;0.60;;;;;;;21.02;100.00;99370.73;1725083;81;21372;-64
2021/05/25 11:08:36;;;;;;;1.05;0.55;;;;;;;21.14;100.00;99363.07;1711327;82;21444;-67
2021/05/25 11:11:12;;;;;;;0.95;0.60;;;;;;;21.25;100.00;99355.43;1710358;82;20942;-68
2021/05/25 11:13:52;;;;;;;2.92;0.60;;;;;;;21.36;100.00;99348.66;1710279;82;20997;-68
2021/05/25 11:16:34;;;;;;;1.65;0.60;;;;;;;21.56;100.00;99342.81;1710280;82;20917;-68
2021/05/25 11:19:19;;;;;;;0.82;0.42;;;;;;;21.76;100.00;99340.50;1710539;82;20961;-68
2021/05/25 11:25:01;;;;;;;0.80;0.68;;;;;;;22.00;100.00;99325.90;1711350;82;20875;-68
2021/05/25 11:27:42;;;;;;;2.42;0.75;;;;;;;22.09;100.00;99322.78;1708252;82;20886;-68
2021/05/25 11:30:23;;;;;;;3.12;0.70;;;;;;;22.10;100.00;99320.49;1710315;82;20942;-67
2021/05/25 11:32:55;;;;;;;1.47;0.85;;;;;;;22.10;100.00;99319.62;1711321;82;21048;-67
2021/05/25 11:35:25;;;;;;;2.40;0.65;;;;;;;22.05;98.71;99324.36;1711480;82;20918;-67
2021/05/25 11:37:54;;;;;;;1.40;0.80;;;;;;;21.93;97.31;99324.47;1711304;82;21397;-67
2021/05/25 11:40:29;;;;;;;2.05;0.65;;;;;;;21.77;99.92;99324.83;1711259;82;20922;-67
2021/05/25 11:42:56;;;;;;;7.55;1.15;;;;;;;21.65;99.93;99330.29;1711285;82;20921;-68
2021/05/25 11:45:27;;;;;;;3.22;0.62;;;;;;;21.55;99.41;99335.70;1727422;82;21396;-67
2021/05/25 11:47:59;;;;;;;1.35;0.60;;;;;;;21.52;100.00;99341.22;1727422;81;20874;-67
2021/05/25 11:50:28;;;;;;;1.92;0.65;;;;;;;21.50;100.00;99346.66;1727525;82;20914;-67
2021/05/25 11:52:56;;;;;;;2.00;0.60;;;;;;;21.50;100.00;99342.63;1726646;81;20914;-67
2021/05/25 11:55:24;;;;;;;0.85;0.50;;;;;;;21.48;100.00;99335.59;1724503;81;20929;-67
2021/05/25 11:57:52;;;;;;;2.62;0.90;;;;;;;21.45;98.41;99341.11;1725875;82;21039;-67
2021/05/25 12:00:28;;;;;;;2.05;0.50;;;;;;;21.39;98.29;99337.37;1727224;82;20957;-67
2021/05/25 12:02:58;;;;;;;2.58;0.60;;;;;;;21.31;96.40;99329.22;1725748;82;21568;-67
2021/05/25 12:05:31;;;;;;;2.33;0.60;;;;;;;21.23;96.04;99328.67;1739590;81;20932;-67
2021/05/25 12:08:07;;;;;;;4.03;0.60;;;;;;;21.15;97.39;99327.26;1735280;82;21554;-67
2021/05/25 12:10:38;;;;;;;3.25;0.68;;;;;;;21.08;99.01;99326.67;1735214;82;21447;-68
2021/05/25 12:13:13;;;;;;;1.42;0.60;;;;;;;21.03;99.75;99313.47;1736796;81;21471;-68
2021/05/25 12:15:48;;;;;;;3.50;0.72;;;;;;;21.03;100.00;99323.33;1748603;81;20925;-68
2021/05/25 12:18:22;;;;;;;0.40;0.40;;;;;;;21.03;100.00;99316.16;1752811;81;20976;-68
2021/05/25 12:20:54;;;;;;;1.82;0.68;;;;;;;21.03;100.00;99316.63;1765793;81;20925;-68